sensor_id;sensor_type;location;lat;lon;timestamp;pressure;altitude;pressure_sealevel;temperature;humidity
29121;BME280;16191;49.548;8.658;2024-03-06T00:02:21;100435.16;;;6.15;100.00
29121;BME280;16191;49.548;8.658;2024-03-06T00:04:48;100440.44;;;6.11;100.00
29121;BME280;16191;49.548;8.658;2024-03-06T00:07:15;100445.59;;;6.11;100.00
29121;BME280;16191;49.548;8.658;2024-03-06T00:09:41;100447.31;;;6.12;100.00
29121;BME280;16191;49.548;8.658;2024-03-06T00:12:08;100454.25;;;6.11;100.00
29121;BME280;16191;49.548;8.658;2024-03-06T00:14:35;100466.28;;;6.14;100.00
29121;BME280;16191;49.548;8.658;2024-03-06T00:17:03;100460.31;;;6.09;100.00
29121;BME280;16191;49.548;8.658;2024-03-06T00:19:31;100465.38;;;6.16;100.00
29121;BME280;16191;49.548;8.658;2024-03-06T00:21:59;100474.00;;;6.17;100.00
29121;BME280;16191;49.548;8.658;2024-03-06T00:24:26;100460.25;;;6.13;100.00
29121;BME280;16191;49.548;8.658;2024-03-06T00:26:52;100470.63;;;6.12;100.00
29121;BME280;16191;49.548;8.658;2024-03-06T00:29:20;100469.69;;;6.16;100.00
29121;BME280;16191;49.548;8.658;2024-03-06T00:31:46;100467.25;;;6.08;100.00
29121;BME280;16191;49.548;8.658;2024-03-06T00:34:13;100476.72;;;6.09;100.00
29121;BME280;16191;49.548;8.658;2024-03-06T00:36:41;100474.41;;;5.96;100.00
29121;BME280;16191;49.548;8.658;2024-03-06T00:39:08;100476.88;;;6.02;100.00
29121;BME280;16191;49.548;8.658;2024-03-06T00:41:35;100480.31;;;6.04;100.00
29121;BME280;16191;49.548;8.658;2024-03-06T00:44:02;100481.06;;;6.07;100.00
29121;BME280;16191;49.548;8.658;2024-03-06T00:46:29;100482.06;;;6.02;100.00
29121;BME280;16191;49.548;8.658;2024-03-06T00:48:56;100481.03;;;6.10;100.00
29121;BME280;16191;49.548;8.658;2024-03-06T00:51:23;100485.47;;;6.05;100.00
29121;BME280;16191;49.548;8.658;2024-03-06T00:54:06;100482.75;;;6.10;100.00
29121;BME280;16191;49.548;8.658;2024-03-06T00:56:37;100480.28;;;6.05;100.00
29121;BME280;16191;49.548;8.658;2024-03-06T00:59:04;100486.41;;;6.01;100.00
29121;BME280;16191;49.548;8.658;2024-03-06T01:01:30;100488.91;;;6.06;100.00
29121;BME280;16191;49.548;8.658;2024-03-06T01:03:57;100487.97;;;6.08;100.00
29121;BME280;16191;49.548;8.658;2024-03-06T01:06:24;100486.34;;;6.04;100.00
29121;BME280;16191;49.548;8.658;2024-03-06T01:08:51;100481.16;;;6.04;100.00
29121;BME280;16191;49.548;8.658;2024-03-06T01:11:17;100482.88;;;6.05;100.00
29121;BME280;16191;49.548;8.658;2024-03-06T01:13:44;100482.97;;;5.99;100.00
29121;BME280;16191;49.548;8.658;2024-03-06T01:16:11;100488.09;;;6.02;100.00
29121;BME280;16191;49.548;8.658;2024-03-06T01:18:38;100478.59;;;6.03;100.00
29121;BME280;16191;49.548;8.658;2024-03-06T01:21:04;100481.25;;;5.98;100.00
29121;BME280;16191;49.548;8.658;2024-03-06T01:23:31;100484.69;;;6.00;100.00
29121;BME280;16191;49.548;8.658;2024-03-06T01:25:58;100486.34;;;6.04;100.00
29121;BME280;16191;49.548;8.658;2024-03-06T01:28:24;100485.63;;;5.96;100.00
29121;BME280;16191;49.548;8.658;2024-03-06T01:30:51;100482.13;;;5.99;100.00
29121;BME280;16191;49.548;8.658;2024-03-06T01:33:18;100482.16;;;5.97;100.00
29121;BME280;16191;49.548;8.658;2024-03-06T01:35:45;100483.13;;;5.90;100.00
29121;BME280;16191;49.548;8.658;2024-03-06T01:38:11;100489.19;;;5.88;100.00
29121;BME280;16191;49.548;8.658;2024-03-06T01:40:43;100485.88;;;5.81;100.00
29121;BME280;16191;49.548;8.658;2024-03-06T01:43:24;100487.56;;;5.82;100.00
29121;BME280;16191;49.548;8.658;2024-03-06T01:45:52;100483.31;;;5.78;100.00
29121;BME280;16191;49.548;8.658;2024-03-06T01:48:23;100489.38;;;5.78;100.00
29121;BME280;16191;49.548;8.658;2024-03-06T01:50:56;100493.63;;;5.81;100.00
29121;BME280;16191;49.548;8.658;2024-03-06T01:53:22;100493.72;;;5.76;100.00
29121;BME280;16191;49.548;8.658;2024-03-06T01:55:51;100493.72;;;5.76;100.00
29121;BME280;16191;49.548;8.658;2024-03-06T01:58:19;100492.94;;;5.71;100.00
29121;BME280;16191;49.548;8.658;2024-03-06T02:00:49;100483.75;;;5.54;100.00
29121;BME280;16191;49.548;8.658;2024-03-06T02:03:17;100482.69;;;5.64;100.00
29121;BME280;16191;49.548;8.658;2024-03-06T02:05:48;100475.75;;;5.66;100.00
29121;BME280;16191;49.548;8.658;2024-03-06T02:08:15;100479.56;;;5.45;100.00
29121;BME280;16191;49.548;8.658;2024-03-06T02:10:44;100476.84;;;5.53;100.00
29121;BME280;16191;49.548;8.658;2024-03-06T02:13:13;100488.97;;;5.49;100.00
29121;BME280;16191;49.548;8.658;2024-03-06T02:15:40;100485.53;;;5.50;100.00
29121;BME280;16191;49.548;8.658;2024-03-06T02:18:07;100480.41;;;5.45;100.00
29121;BME280;16191;49.548;8.658;2024-03-06T02:20:38;100492.44;;;5.49;100.00
29121;BME280;16191;49.548;8.658;2024-03-06T02:23:06;100493.25;;;5.53;100.00
29121;BME280;16191;49.548;8.658;2024-03-06T02:25:33;100493.25;;;5.51;100.00
29121;BME280;16191;49.548;8.658;2024-03-06T02:28:00;100490.75;;;5.45;100.00
29121;BME280;16191;49.548;8.658;2024-03-06T02:30:26;100496.69;;;5.54;100.00
29121;BME280;16191;49.548;8.658;2024-03-06T02:32:53;100497.59;;;5.49;100.00
29121;BME280;16191;49.548;8.658;2024-03-06T02:35:20;100498.47;;;5.50;100.00
29121;BME280;16191;49.548;8.658;2024-03-06T02:38:07;100492.44;;;5.48;100.00
29121;BME280;16191;49.548;8.658;2024-03-06T02:40:54;100503.63;;;5.51;100.00
29121;BME280;16191;49.548;8.658;2024-03-06T02:43:41;100502.88;;;5.43;100.00
29121;BME280;16191;49.548;8.658;2024-03-06T02:46:28;100503.69;;;5.47;100.00
29121;BME280;16191;49.548;8.658;2024-03-06T02:49:16;100497.59;;;5.49;100.00
29121;BME280;16191;49.548;8.658;2024-03-06T02:52:03;100493.31;;;5.47;100.00
29121;BME280;16191;49.548;8.658;2024-03-06T02:54:30;100499.31;;;5.50;100.00
29121;BME280;16191;49.548;8.658;2024-03-06T02:56:57;100501.03;;;5.51;100.00
29121;BME280;16191;49.548;8.658;2024-03-06T02:59:24;100498.53;;;5.45;100.00
29121;BME280;16191;49.548;8.658;2024-03-06T03:01:51;100498.53;;;5.44;100.00
29121;BME280;16191;49.548;8.658;2024-03-06T03:04:18;100504.56;;;5.44;100.00
29121;BME280;16191;49.548;8.658;2024-03-06T03:06:45;100493.69;;;5.24;100.00
29121;BME280;16191;49.548;8.658;2024-03-06T03:09:11;100497.06;;;5.29;100.00
29121;BME280;16191;49.548;8.658;2024-03-06T03:11:39;100497.06;;;5.29;100.00
29121;BME280;16191;49.548;8.658;2024-03-06T03:14:05;100487.63;;;5.27;100.00
29121;BME280;16191;49.548;8.658;2024-03-06T03:16:33;100484.16;;;5.28;100.00
29121;BME280;16191;49.548;8.658;2024-03-06T03:19:01;100482.44;;;5.27;100.00
29121;BME280;16191;49.548;8.658;2024-03-06T03:21:27;100481.59;;;5.25;100.00
29121;BME280;16191;49.548;8.658;2024-03-06T03:23:54;100484.97;;;5.31;100.00
29121;BME280;16191;49.548;8.658;2024-03-06T03:26:21;100481.88;;;5.06;100.00
29121;BME280;16191;49.548;8.658;2024-03-06T03:28:48;100489.53;;;5.14;100.00
29121;BME280;16191;49.548;8.658;2024-03-06T03:31:15;100492.81;;;5.25;100.00
29121;BME280;16191;49.548;8.658;2024-03-06T03:33:42;100493.03;;;5.10;100.00
29121;BME280;16191;49.548;8.658;2024-03-06T03:36:11;100486.19;;;5.06;100.00
29121;BME280;16191;49.548;8.658;2024-03-06T03:38:38;100493.88;;;5.13;100.00
29121;BME280;16191;49.548;8.658;2024-03-06T03:41:12;100487.88;;;5.10;100.00
29121;BME280;16191;49.548;8.658;2024-03-06T03:43:40;100498.31;;;5.02;100.00
29121;BME280;16191;49.548;8.658;2024-03-06T03:46:08;100500.19;;;4.93;100.00
29121;BME280;16191;49.548;8.658;2024-03-06T03:48:35;100506.19;;;4.96;100.00
29121;BME280;16191;49.548;8.658;2024-03-06T03:51:04;100503.50;;;5.01;100.00
29121;BME280;16191;49.548;8.658;2024-03-06T03:53:31;100506.03;;;5.07;100.00
29121;BME280;16191;49.548;8.658;2024-03-06T03:55:58;100514.00;;;4.92;100.00
29121;BME280;16191;49.548;8.658;2024-03-06T03:58:25;100513.97;;;4.95;100.00
29121;BME280;16191;49.548;8.658;2024-03-06T04:00:52;100512.41;;;4.81;100.00
29121;BME280;16191;49.548;8.658;2024-03-06T04:03:19;100517.44;;;4.94;100.00
29121;BME280;16191;49.548;8.658;2024-03-06T04:05:47;100517.44;;;4.92;100.00
29121;BME280;16191;49.548;8.658;2024-03-06T04:08:15;100516.56;;;4.93;100.00
29121;BME280;16191;49.548;8.658;2024-03-06T04:10:42;100521.00;;;4.83;100.00
29121;BME280;16191;49.548;8.658;2024-03-06T04:13:12;100510.84;;;4.68;100.00
29121;BME280;16191;49.548;8.658;2024-03-06T04:15:39;100510.94;;;4.62;100.00
29121;BME280;16191;49.548;8.658;2024-03-06T04:18:06;100511.66;;;4.75;100.00
29121;BME280;16191;49.548;8.658;2024-03-06T04:20:33;100521.88;;;4.82;100.00
29121;BME280;16191;49.548;8.658;2024-03-06T04:23:01;100522.06;;;4.67;100.00
29121;BME280;16191;49.548;8.658;2024-03-06T04:25:27;100519.50;;;4.66;100.00
29121;BME280;16191;49.548;8.658;2024-03-06T04:27:54;100518.69;;;4.62;100.00
29121;BME280;16191;49.548;8.658;2024-03-06T04:30:21;100524.00;;;4.50;100.00
29121;BME280;16191;49.548;8.658;2024-03-06T04:32:47;100527.28;;;4.63;100.00
29121;BME280;16191;49.548;8.658;2024-03-06T04:35:15;100530.91;;;4.48;100.00
29121;BME280;16191;49.548;8.658;2024-03-06T04:37:42;100531.56;;;4.67;100.00
29121;BME280;16191;49.548;8.658;2024-03-06T04:40:11;100534.09;;;4.71;100.00
29121;BME280;16191;49.548;8.658;2024-03-06T04:42:38;100538.56;;;4.56;100.00
29121;BME280;16191;49.548;8.658;2024-03-06T04:45:11;100542.81;;;4.60;100.00
29121;BME280;16191;49.548;8.658;2024-03-06T04:47:38;100546.25;;;4.62;100.00
29121;BME280;16191;49.548;8.658;2024-03-06T04:50:09;100544.50;;;4.65;100.00
29121;BME280;16191;49.548;8.658;2024-03-06T04:52:40;100554.72;;;4.74;100.00
29121;BME280;16191;49.548;8.658;2024-03-06T04:55:07;100555.59;;;4.75;100.00
29121;BME280;16191;49.548;8.658;2024-03-06T04:57:37;100559.84;;;4.77;100.00
29121;BME280;16191;49.548;8.658;2024-03-06T05:00:05;100569.31;;;4.78;100.00
29121;BME280;16191;49.548;8.658;2024-03-06T05:02:35;100566.72;;;4.80;100.00
29121;BME280;16191;49.548;8.658;2024-03-06T05:05:21;100572.84;;;4.74;100.00
29121;BME280;16191;49.548;8.658;2024-03-06T05:08:06;100577.91;;;4.79;100.00
29121;BME280;16191;49.548;8.658;2024-03-06T05:10:51;100579.75;;;4.72;100.00
29121;BME280;16191;49.548;8.658;2024-03-06T05:13:35;100579.75;;;4.72;100.00
29121;BME280;16191;49.548;8.658;2024-03-06T05:16:19;100585.69;;;4.77;100.00
29121;BME280;16191;49.548;8.658;2024-03-06T05:19:06;100589.13;;;4.79;100.00
29121;BME280;16191;49.548;8.658;2024-03-06T05:21:50;100589.13;;;4.78;100.00
29121;BME280;16191;49.548;8.658;2024-03-06T05:24:35;100596.09;;;4.76;100.00
29121;BME280;16191;49.548;8.658;2024-03-06T05:27:21;100597.75;;;4.78;100.00
29121;BME280;16191;49.548;8.658;2024-03-06T05:30:05;100590.91;;;4.76;100.00
29121;BME280;16191;49.548;8.658;2024-03-06T05:32:50;100584.03;;;4.75;100.00
29121;BME280;16191;49.548;8.658;2024-03-06T05:35:34;100595.41;;;4.57;100.00
29121;BME280;16191;49.548;8.658;2024-03-06T05:38:18;100586.03;;;4.50;100.00
29121;BME280;16191;49.548;8.658;2024-03-06T05:41:03;100595.56;;;4.43;100.00
29121;BME280;16191;49.548;8.658;2024-03-06T05:43:47;100599.00;;;4.45;100.00
29121;BME280;16191;49.548;8.658;2024-03-06T05:46:32;100600.53;;;4.60;100.00
29121;BME280;16191;49.548;8.658;2024-03-06T05:49:16;100608.28;;;4.62;100.00
29121;BME280;16191;49.548;8.658;2024-03-06T05:52:00;100619.44;;;4.67;100.00
29121;BME280;16191;49.548;8.658;2024-03-06T05:54:45;100626.34;;;4.66;100.00
29121;BME280;16191;49.548;8.658;2024-03-06T05:57:29;100631.44;;;4.74;100.00
29121;BME280;16191;49.548;8.658;2024-03-06T06:00:13;100633.16;;;4.75;100.00
29121;BME280;16191;49.548;8.658;2024-03-06T06:02:40;100635.75;;;4.73;100.00
29121;BME280;16191;49.548;8.658;2024-03-06T06:05:07;100642.63;;;4.74;100.00
29121;BME280;16191;49.548;8.658;2024-03-06T06:07:50;100647.72;;;4.79;100.00
29121;BME280;16191;49.548;8.658;2024-03-06T06:10:17;100650.31;;;4.77;100.00
29121;BME280;16191;49.548;8.658;2024-03-06T06:12:48;100644.41;;;4.69;100.00
29121;BME280;16191;49.548;8.658;2024-03-06T06:15:15;100658.13;;;4.74;100.00
29121;BME280;16191;49.548;8.658;2024-03-06T06:17:42;100652.22;;;4.63;100.00
29121;BME280;16191;49.548;8.658;2024-03-06T06:20:12;100654.63;;;4.77;100.00
29121;BME280;16191;49.548;8.658;2024-03-06T06:22:43;100666.66;;;4.82;100.00
29121;BME280;16191;49.548;8.658;2024-03-06T06:25:10;100665.81;;;4.80;100.00
29121;BME280;16191;49.548;8.658;2024-03-06T06:27:38;100664.94;;;4.80;100.00
29121;BME280;16191;49.548;8.658;2024-03-06T06:30:06;100670.97;;;4.82;100.00
29121;BME280;16191;49.548;8.658;2024-03-06T06:32:37;100667.47;;;4.86;100.00
29121;BME280;16191;49.548;8.658;2024-03-06T06:35:04;100677.75;;;4.94;100.00
29121;BME280;16191;49.548;8.658;2024-03-06T06:37:32;100685.44;;;4.98;100.00
29121;BME280;16191;49.548;8.658;2024-03-06T06:39:59;100682.91;;;4.97;100.00
29121;BME280;16191;49.548;8.658;2024-03-06T06:42:26;100687.13;;;5.02;100.00
29121;BME280;16191;49.548;8.658;2024-03-06T06:44:53;100683.59;;;5.11;100.00
29121;BME280;16191;49.548;8.658;2024-03-06T06:47:19;100684.47;;;5.08;100.00
29121;BME280;16191;49.548;8.658;2024-03-06T06:49:46;100685.31;;;5.09;100.00
29121;BME280;16191;49.548;8.658;2024-03-06T06:52:13;100689.63;;;5.11;100.00
29121;BME280;16191;49.548;8.658;2024-03-06T06:54:40;100685.28;;;5.15;100.00
29121;BME280;16191;49.548;8.658;2024-03-06T06:57:07;100688.69;;;5.17;100.00
29121;BME280;16191;49.548;8.658;2024-03-06T06:59:34;100695.59;;;5.16;100.00
29121;BME280;16191;49.548;8.658;2024-03-06T07:02:02;100698.97;;;5.20;100.00
29121;BME280;16191;49.548;8.658;2024-03-06T07:04:29;100704.13;;;5.22;100.00
29121;BME280;16191;49.548;8.658;2024-03-06T07:06:57;100706.72;;;5.23;100.00
29121;BME280;16191;49.548;8.658;2024-03-06T07:09:23;100701.53;;;5.25;100.00
29121;BME280;16191;49.548;8.658;2024-03-06T07:11:51;100716.16;;;5.27;100.00
29121;BME280;16191;49.548;8.658;2024-03-06T07:14:18;100711.81;;;5.29;100.00
29121;BME280;16191;49.548;8.658;2024-03-06T07:16:45;100710.91;;;5.33;100.00
29121;BME280;16191;49.548;8.658;2024-03-06T07:19:12;100711.81;;;5.31;100.00
29121;BME280;16191;49.548;8.658;2024-03-06T07:21:39;100711.75;;;5.37;100.00
29121;BME280;16191;49.548;8.658;2024-03-06T07:24:06;100724.59;;;5.41;100.00
29121;BME280;16191;49.548;8.658;2024-03-06T07:26:33;100718.59;;;5.41;100.00
29121;BME280;16191;49.548;8.658;2024-03-06T07:29:01;100724.56;;;5.46;100.00
29121;BME280;16191;49.548;8.658;2024-03-06T07:31:29;100726.25;;;5.47;100.00
29121;BME280;16191;49.548;8.658;2024-03-06T07:33:55;100733.16;;;5.48;100.00
29121;BME280;16191;49.548;8.658;2024-03-06T07:36:22;100723.59;;;5.55;100.00
29121;BME280;16191;49.548;8.658;2024-03-06T07:38:49;100734.75;;;5.60;100.00
29121;BME280;16191;49.548;8.658;2024-03-06T07:41:15;100731.19;;;5.65;100.00
29121;BME280;16191;49.548;8.658;2024-03-06T07:43:42;100738.03;;;5.72;100.00
29121;BME280;16191;49.548;8.658;2024-03-06T07:46:09;100737.16;;;5.73;100.00
29121;BME280;16191;49.548;8.658;2024-03-06T07:48:37;100739.66;;;5.79;100.00
29121;BME280;16191;49.548;8.658;2024-03-06T07:51:05;100745.59;;;5.89;100.00
29121;BME280;16191;49.548;8.658;2024-03-06T07:53:31;100750.75;;;5.92;100.00
29121;BME280;16191;49.548;8.658;2024-03-06T07:55:58;100750.69;;;5.97;100.00
29121;BME280;16191;49.548;8.658;2024-03-06T07:58:25;100755.75;;;6.04;100.00
29121;BME280;16191;49.548;8.658;2024-03-06T08:00:52;100754.78;;;6.11;100.00
29121;BME280;16191;49.548;8.658;2024-03-06T08:03:23;100758.25;;;6.10;100.00
29121;BME280;16191;49.548;8.658;2024-03-06T08:05:52;100767.53;;;6.27;100.00
29121;BME280;16191;49.548;8.658;2024-03-06T08:08:21;100764.81;;;6.33;100.00
29121;BME280;16191;49.548;8.658;2024-03-06T08:10:48;100770.78;;;6.38;100.00
29121;BME280;16191;49.548;8.658;2024-03-06T08:13:15;100768.13;;;6.44;100.00
29121;BME280;16191;49.548;8.658;2024-03-06T08:15:42;100784.41;;;6.50;100.00
29121;BME280;16191;49.548;8.658;2024-03-06T08:18:12;100774.75;;;6.62;100.00
29121;BME280;16191;49.548;8.658;2024-03-06T08:20:40;100775.34;;;6.77;100.00
29121;BME280;16191;49.548;8.658;2024-03-06T08:23:08;100778.66;;;6.85;100.00
29121;BME280;16191;49.548;8.658;2024-03-06T08:25:36;100774.13;;;6.98;100.00
29121;BME280;16191;49.548;8.658;2024-03-06T08:28:03;100780.09;;;7.03;100.00
29121;BME280;16191;49.548;8.658;2024-03-06T08:30:32;100782.69;;;7.03;100.00
29121;BME280;16191;49.548;8.658;2024-03-06T08:32:59;100783.59;;;7.01;100.00
29121;BME280;16191;49.548;8.658;2024-03-06T08:35:26;100784.63;;;6.92;100.00
29121;BME280;16191;49.548;8.658;2024-03-06T08:37:53;100778.22;;;6.61;100.00
29121;BME280;16191;49.548;8.658;2024-03-06T08:40:20;100793.91;;;6.51;100.00
29121;BME280;16191;49.548;8.658;2024-03-06T08:42:47;100786.31;;;6.93;100.00
29121;BME280;16191;49.548;8.658;2024-03-06T08:45:18;100788.00;;;6.94;100.00
29121;BME280;16191;49.548;8.658;2024-03-06T08:47:45;100797.94;;;7.20;100.00
29121;BME280;16191;49.548;8.658;2024-03-06T08:50:14;100805.50;;;7.32;100.00
29121;BME280;16191;49.548;8.658;2024-03-06T08:52:41;100806.22;;;7.40;100.00
29121;BME280;16191;49.548;8.658;2024-03-06T08:55:08;100801.78;;;7.45;100.00
29121;BME280;16191;49.548;8.658;2024-03-06T08:57:36;100807.06;;;7.41;100.00
29121;BME280;16191;49.548;8.658;2024-03-06T09:00:04;100812.41;;;7.33;100.00
29121;BME280;16191;49.548;8.658;2024-03-06T09:02:31;100810.69;;;7.34;100.00
29121;BME280;16191;49.548;8.658;2024-03-06T09:04:57;100815.47;;;7.55;100.00
29121;BME280;16191;49.548;8.658;2024-03-06T09:07:24;100809.94;;;7.72;100.00
29121;BME280;16191;49.548;8.658;2024-03-06T09:09:51;100811.28;;;7.89;100.00
29121;BME280;16191;49.548;8.658;2024-03-06T09:12:18;100823.13;;;7.61;100.00
29121;BME280;16191;49.548;8.658;2024-03-06T09:14:45;100823.53;;;7.40;100.00
29121;BME280;16191;49.548;8.658;2024-03-06T09:17:12;100817.09;;;7.59;100.00
29121;BME280;16191;49.548;8.658;2024-03-06T09:19:42;100823.50;;;7.86;100.00
29121;BME280;16191;49.548;8.658;2024-03-06T09:22:29;100832.78;;;7.98;100.00
29121;BME280;16191;49.548;8.658;2024-03-06T09:24:55;100834.84;;;7.80;100.00
29121;BME280;16191;49.548;8.658;2024-03-06T09:27:23;100828.66;;;7.87;100.00
29121;BME280;16191;49.548;8.658;2024-03-06T09:29:49;100822.13;;;8.10;100.00
29121;BME280;16191;49.548;8.658;2024-03-06T09:32:16;100833.03;;;8.25;100.00
29121;BME280;16191;49.548;8.658;2024-03-06T09:34:45;100828.38;;;8.43;100.00
29121;BME280;16191;49.548;8.658;2024-03-06T09:37:12;100831.50;;;8.57;100.00
29121;BME280;16191;49.548;8.658;2024-03-06T09:39:39;100831.25;;;8.66;100.00
29121;BME280;16191;49.548;8.658;2024-03-06T09:42:06;100830.81;;;8.86;100.00
29121;BME280;16191;49.548;8.658;2024-03-06T09:44:34;100835.97;;;8.87;100.00
29121;BME280;16191;49.548;8.658;2024-03-06T09:47:02;100837.56;;;8.93;100.00
29121;BME280;16191;49.548;8.658;2024-03-06T09:49:32;100838.31;;;8.98;100.00
29121;BME280;16191;49.548;8.658;2024-03-06T09:52:01;100840.38;;;9.19;100.00
29121;BME280;16191;49.548;8.658;2024-03-06T09:54:29;100841.19;;;9.21;100.00
29121;BME280;16191;49.548;8.658;2024-03-06T09:56:56;100842.63;;;8.99;100.00
29121;BME280;16191;49.548;8.658;2024-03-06T09:59:25;100845.53;;;9.21;100.00
29121;BME280;16191;49.548;8.658;2024-03-06T10:01:55;100841.22;;;9.20;100.00
29121;BME280;16191;49.548;8.658;2024-03-06T10:04:24;100852.59;;;9.50;100.00
29121;BME280;16191;49.548;8.658;2024-03-06T10:06:56;100854.03;;;9.29;100.00
29121;BME280;16191;49.548;8.658;2024-03-06T10:09:24;100853.25;;;9.56;100.00
29121;BME280;16191;49.548;8.658;2024-03-06T10:11:52;100861.34;;;9.47;100.00
29121;BME280;16191;49.548;8.658;2024-03-06T10:14:31;100862.31;;;9.43;100.00
29121;BME280;16191;49.548;8.658;2024-03-06T10:17:00;100862.34;;;9.42;100.00
29121;BME280;16191;49.548;8.658;2024-03-06T10:19:28;100860.88;;;9.32;100.00
29121;BME280;16191;49.548;8.658;2024-03-06T10:21:56;100860.72;;;9.38;100.00
29121;BME280;16191;49.548;8.658;2024-03-06T10:24:26;100865.63;;;9.50;100.00
29121;BME280;16191;49.548;8.658;2024-03-06T10:26:57;100872.16;;;9.65;100.00
29121;BME280;16191;49.548;8.658;2024-03-06T10:29:28;100871.81;;;9.46;100.00
29121;BME280;16191;49.548;8.658;2024-03-06T10:31:57;100866.13;;;9.62;100.00
29121;BME280;16191;49.548;8.658;2024-03-06T10:34:25;100867.78;;;9.67;100.00
29121;BME280;16191;49.548;8.658;2024-03-06T10:36:57;100861.97;;;9.88;100.00
29121;BME280;16191;49.548;8.658;2024-03-06T10:39:24;100864.22;;;10.00;100.00
29121;BME280;16191;49.548;8.658;2024-03-06T10:41:53;100865.38;;;10.21;100.00
29121;BME280;16191;49.548;8.658;2024-03-06T10:44:23;100868.66;;;9.96;100.00
29121;BME280;16191;49.548;8.658;2024-03-06T10:46:59;100865.19;;;10.27;100.00
29121;BME280;16191;49.548;8.658;2024-03-06T10:49:28;100864.13;;;10.34;100.00
29121;BME280;16191;49.548;8.658;2024-03-06T10:52:04;100861.03;;;10.49;100.00
29121;BME280;16191;49.548;8.658;2024-03-06T10:54:35;100866.06;;;10.27;100.00
29121;BME280;16191;49.548;8.658;2024-03-06T10:57:03;100868.25;;;10.41;100.00
29121;BME280;16191;49.548;8.658;2024-03-06T10:59:30;100864.75;;;10.70;100.00
29121;BME280;16191;49.548;8.658;2024-03-06T11:02:01;100861.53;;;10.88;100.00
29121;BME280;16191;49.548;8.658;2024-03-06T11:04:31;100862.75;;;10.78;100.00
29121;BME280;16191;49.548;8.658;2024-03-06T11:07:02;100864.88;;;10.93;100.00
29121;BME280;16191;49.548;8.658;2024-03-06T11:09:34;100867.72;;;10.86;100.00
29121;BME280;16191;49.548;8.658;2024-03-06T11:12:10;100869.91;;;10.99;100.00
29121;BME280;16191;49.548;8.658;2024-03-06T11:14:38;100858.75;;;11.21;100.00
29121;BME280;16191;49.548;8.658;2024-03-06T11:17:07;100854.38;;;11.21;100.00
29121;BME280;16191;49.548;8.658;2024-03-06T11:28:24;100853.28;;;11.52;100.00
29121;BME280;16191;49.548;8.658;2024-03-06T11:31:02;100854.19;;;11.76;100.00
29121;BME280;16191;49.548;8.658;2024-03-06T11:33:46;100858.34;;;11.83;100.00
29121;BME280;16191;49.548;8.658;2024-03-06T11:38:58;100862.94;;;11.99;100.00
29121;BME280;16191;49.548;8.658;2024-03-06T11:41:33;100856.72;;;11.79;100.00
29121;BME280;16191;49.548;8.658;2024-03-06T11:44:15;100859.09;;;11.86;100.00
29121;BME280;16191;49.548;8.658;2024-03-06T11:46:43;100850.22;;;11.90;100.00
29121;BME280;16191;49.548;8.658;2024-03-06T11:49:22;100857.59;;;11.79;100.00
29121;BME280;16191;49.548;8.658;2024-03-06T11:51:51;100858.38;;;11.81;100.00
29121;BME280;16191;49.548;8.658;2024-03-06T11:54:19;100856.25;;;11.43;100.00
29121;BME280;16191;49.548;8.658;2024-03-06T11:56:51;100852.72;;;11.68;100.00
29121;BME280;16191;49.548;8.658;2024-03-06T11:59:21;100850.13;;;11.68;100.00
29121;BME280;16191;49.548;8.658;2024-03-06T12:01:48;100858.72;;;11.71;100.00
29121;BME280;16191;49.548;8.658;2024-03-06T12:04:15;100855.66;;;11.59;100.00
29121;BME280;16191;49.548;8.658;2024-03-06T12:06:42;100845.94;;;11.38;100.00
29121;BME280;16191;49.548;8.658;2024-03-06T12:09:09;100848.84;;;11.80;100.00
29121;BME280;16191;49.548;8.658;2024-03-06T12:11:38;100846.06;;;11.85;100.00
29121;BME280;16191;49.548;8.658;2024-03-06T12:14:05;100837.81;;;11.95;100.00
29121;BME280;16191;49.548;8.658;2024-03-06T12:16:32;100842.03;;;11.99;100.00
29121;BME280;16191;49.548;8.658;2024-03-06T12:18:59;100839.75;;;11.90;100.00
29121;BME280;16191;49.548;8.658;2024-03-06T12:21:32;100844.13;;;11.90;100.00
29121;BME280;16191;49.548;8.658;2024-03-06T12:24:10;100848.03;;;11.78;100.00
29121;BME280;16191;49.548;8.658;2024-03-06T12:26:37;100850.50;;;11.83;100.00
29121;BME280;16191;49.548;8.658;2024-03-06T12:29:11;100857.63;;;11.53;100.00
29121;BME280;16191;49.548;8.658;2024-03-06T12:31:38;100853.59;;;11.44;100.00
29121;BME280;16191;49.548;8.658;2024-03-06T12:34:13;100856.25;;;11.43;100.00
29121;BME280;16191;49.548;8.658;2024-03-06T12:36:41;100853.28;;;11.27;100.00
29121;BME280;16191;49.548;8.658;2024-03-06T12:39:08;100853.78;;;11.38;100.00
29121;BME280;16191;49.548;8.658;2024-03-06T12:41:40;100854.38;;;11.46;100.00
29121;BME280;16191;49.548;8.658;2024-03-06T12:44:07;100849.34;;;11.15;100.00
29121;BME280;16191;49.548;8.658;2024-03-06T12:46:34;100848.72;;;11.33;100.00
29121;BME280;16191;49.548;8.658;2024-03-06T12:49:01;100846.63;;;11.18;100.00
29121;BME280;16191;49.548;8.658;2024-03-06T12:51:28;100847.91;;;11.31;100.00
29121;BME280;16191;49.548;8.658;2024-03-06T12:53:55;100847.28;;;11.25;100.00
29121;BME280;16191;49.548;8.658;2024-03-06T12:56:21;100843.44;;;11.35;100.00
29121;BME280;16191;49.548;8.658;2024-03-06T12:58:48;100846.84;;;11.37;100.00
29121;BME280;16191;49.548;8.658;2024-03-06T13:01:15;100846.31;;;11.52;100.00
29121;BME280;16191;49.548;8.658;2024-03-06T13:03:42;100838.53;;;11.51;100.00
29121;BME280;16191;49.548;8.658;2024-03-06T13:06:09;100840.22;;;11.52;100.00
29121;BME280;16191;49.548;8.658;2024-03-06T13:08:36;100841.13;;;11.26;100.00
29121;BME280;16191;49.548;8.658;2024-03-06T13:11:03;100842.09;;;11.48;100.00
29121;BME280;16191;49.548;8.658;2024-03-06T13:13:30;100835.66;;;11.58;100.00